createdAt,value
2022-11-02T06:10:43.441Z,11.10
2022-11-02T06:13:50.609Z,9.75
2022-11-02T06:16:53.213Z,11.93
2022-11-02T06:19:56.087Z,13.35
2022-11-02T06:22:59.210Z,15.25
2022-11-02T06:26:02.850Z,11.43
2022-11-02T06:29:05.433Z,11.75
2022-11-02T06:32:08.494Z,11.80
2022-11-02T06:35:12.330Z,11.82
2022-11-02T06:38:16.379Z,12.05
2022-11-02T06:41:18.999Z,11.45
2022-11-02T06:44:21.851Z,11.68
2022-11-02T06:47:24.547Z,12.20
2022-11-02T06:50:27.659Z,10.95
2022-11-02T06:53:30.432Z,11.43
2022-11-02T06:56:33.465Z,11.60
2022-11-02T06:59:36.119Z,11.57
2022-11-02T07:02:42.403Z,11.25
2022-11-02T07:05:51.275Z,11.80
2022-11-02T07:08:55.522Z,12.37
2022-11-02T07:11:58.482Z,11.32
2022-11-02T07:15:01.473Z,12.02
2022-11-02T07:18:06.246Z,11.85
2022-11-02T07:21:11.517Z,11.40
2022-11-02T07:24:14.430Z,12.82
2022-11-02T07:27:17.432Z,11.45
2022-11-02T07:30:21.106Z,12.70
2022-11-02T07:33:24.064Z,12.43
2022-11-02T07:36:26.650Z,11.77
2022-11-02T07:39:29.742Z,12.20
2022-11-02T07:42:32.583Z,12.15
2022-11-02T07:45:36.531Z,13.02
2022-11-02T07:48:39.284Z,12.90
2022-11-02T07:51:42.338Z,12.40
2022-11-02T07:54:45.271Z,13.43
2022-11-02T07:58:02.648Z,12.25
2022-11-02T08:01:05.494Z,13.32
2022-11-02T08:04:08.602Z,13.90
2022-11-02T08:07:11.316Z,12.93
2022-11-02T08:10:14.368Z,13.27
2022-11-02T08:13:20.321Z,13.68
2022-11-02T08:16:23.291Z,13.43
2022-11-02T08:19:25.980Z,13.43
2022-11-02T08:22:28.879Z,13.75
2022-11-02T08:25:32.489Z,14.30
2022-11-02T08:28:36.701Z,13.38
2022-11-02T08:31:39.412Z,14.13
2022-11-02T08:34:42.535Z,13.23
2022-11-02T08:37:45.381Z,12.70
2022-11-02T08:40:49.815Z,13.45
2022-11-02T08:43:52.434Z,13.73
2022-11-02T08:46:55.819Z,14.50
2022-11-02T08:49:58.976Z,14.38
2022-11-02T08:53:02.621Z,14.13
2022-11-02T08:56:05.335Z,14.57
2022-11-02T08:59:09.008Z,13.43
2022-11-02T09:02:11.768Z,14.25
2022-11-02T09:05:14.875Z,12.52
2022-11-02T09:08:20.314Z,14.35
2022-11-02T09:11:23.274Z,11.98
2022-11-02T09:14:26.151Z,12.88
2022-11-02T09:17:29.335Z,12.18
2022-11-02T09:20:32.519Z,12.07
2022-11-02T09:23:35.948Z,11.57
2022-11-02T09:26:38.531Z,11.77
2022-11-02T09:29:41.466Z,13.55
2022-11-02T09:32:44.202Z,11.50
2022-11-02T09:35:48.904Z,11.82
2022-11-02T09:38:51.476Z,12.70
2022-11-02T09:42:09.699Z,12.95
2022-11-02T09:45:15.580Z,12.88
2022-11-02T09:48:28.733Z,12.68
2022-11-02T09:51:36.762Z,12.82
2022-11-02T09:54:45.293Z,12.45
2022-11-02T09:57:55.437Z,12.35
2022-11-02T10:01:17.983Z,11.68
2022-11-02T10:04:27.323Z,11.15
2022-11-02T10:08:02.734Z,11.30
2022-11-02T10:11:20.984Z,11.27
2022-11-02T10:15:03.480Z,12.13
2022-11-02T10:18:16.375Z,12.13
2022-11-02T10:21:30.304Z,12.43
2022-11-02T10:24:43.444Z,11.35
2022-11-02T10:27:51.305Z,10.98
2022-11-02T10:30:54.823Z,11.45
2022-11-02T10:34:05.806Z,12.40
2022-11-02T10:37:41.368Z,11.02
2022-11-02T10:40:56.425Z,12.50
2022-11-02T10:44:18.380Z,9.90
2022-11-02T10:47:26.827Z,10.20
2022-11-02T10:51:02.930Z,10.70
2022-11-02T10:54:13.680Z,10.27
2022-11-02T11:41:46.373Z,9.10
2022-11-02T11:45:00.154Z,7.72
2022-11-02T11:48:21.046Z,7.30
2022-11-02T11:51:26.816Z,7.35
2022-11-02T11:54:33.666Z,6.05
2022-11-02T12:00:40.615Z,5.45
2022-11-02T12:04:01.477Z,5.90
2022-11-02T12:07:32.171Z,5.32
2022-11-02T12:10:56.635Z,5.40
2022-11-02T12:14:02.672Z,5.72
2022-11-02T12:17:42.702Z,5.22
2022-11-02T12:21:19.515Z,5.15
2022-11-02T12:24:47.766Z,5.10
2022-11-02T12:28:02.921Z,4.32
2022-11-02T12:31:32.514Z,4.75
2022-11-02T12:38:40.632Z,5.30
2022-11-02T12:41:55.577Z,4.85
2022-11-02T12:45:26.159Z,5.28
2022-11-02T12:48:57.918Z,5.37
2022-11-02T12:52:13.977Z,5.43
2022-11-02T12:55:21.719Z,5.45
2022-11-02T12:58:29.276Z,4.80
2022-11-02T13:01:37.884Z,4.50
2022-11-02T13:04:53.103Z,4.50
2022-11-02T13:08:02.194Z,4.35
2022-11-02T13:11:11.734Z,4.37
2022-11-02T13:14:19.471Z,4.25
2022-11-02T13:17:28.453Z,4.28
2022-11-02T13:20:39.710Z,4.40
2022-11-02T13:23:56.993Z,4.85
2022-11-02T13:27:14.148Z,4.93
2022-11-02T13:30:19.752Z,4.70
2022-11-02T13:33:37.663Z,4.95
2022-11-02T13:36:41.256Z,4.45
2022-11-02T13:39:52.518Z,4.53
2022-11-02T13:43:33.166Z,4.00
2022-11-02T13:46:57.659Z,3.40
2022-11-02T13:50:03.874Z,3.87
2022-11-02T13:53:09.827Z,3.75
2022-11-02T13:56:22.774Z,4.05
2022-11-02T13:59:32.636Z,3.53
2022-11-02T14:02:42.093Z,3.85
2022-11-02T14:05:52.808Z,3.83
2022-11-02T14:09:00.961Z,4.18
2022-11-02T14:12:28.320Z,4.87
2022-11-02T14:15:30.817Z,4.25
2022-11-02T14:18:33.998Z,4.62
2022-11-02T14:21:42.815Z,4.25
2022-11-02T14:24:45.613Z,4.93
2022-11-02T14:27:48.376Z,4.30
2022-11-02T14:31:03.945Z,4.05
2022-11-02T14:34:32.219Z,4.60
2022-11-02T14:37:53.300Z,4.72
2022-11-02T14:41:05.093Z,4.68
2022-11-02T14:44:31.943Z,5.05
2022-11-02T14:47:38.436Z,4.75
2022-11-02T14:50:44.219Z,5.82
2022-11-02T14:53:49.530Z,5.45
2022-11-02T14:57:14.184Z,5.53
2022-11-02T15:00:49.419Z,6.00
2022-11-02T15:03:53.661Z,6.07
2022-11-02T15:06:59.655Z,6.57
2022-11-02T15:10:31.317Z,5.37
2022-11-02T15:13:36.692Z,6.30
2022-11-02T15:16:41.426Z,6.05
2022-11-02T15:19:53.567Z,5.97
2022-11-02T15:23:09.449Z,7.47
2022-11-02T15:26:23.316Z,6.25
2022-11-02T15:29:44.006Z,7.70
2022-11-02T15:33:01.729Z,8.70
2022-11-02T15:36:08.821Z,8.65
2022-11-02T15:39:12.819Z,10.32
2022-11-02T16:34:24.377Z,23.38
2022-11-02T16:37:27.735Z,23.38
2022-11-02T16:40:31.521Z,19.60
2022-11-02T16:43:37.279Z,21.80
2022-11-02T16:46:56.434Z,25.88
2022-11-02T16:49:59.587Z,29.48
2022-11-02T16:53:02.797Z,26.00
2022-11-02T16:56:27.702Z,27.60
2022-11-02T16:59:30.903Z,26.15
2022-11-02T17:02:42.571Z,28.77
2022-11-02T17:05:49.549Z,31.83
2022-11-02T17:08:55.244Z,29.30
2022-11-02T17:12:04.575Z,25.25
2022-11-02T17:18:21.710Z,19.62
2022-11-02T17:21:27.365Z,19.08
2022-11-02T17:24:32.472Z,18.30
2022-11-02T17:27:39.360Z,18.52
2022-11-02T17:30:46.370Z,18.35
2022-11-02T17:33:50.600Z,18.37
2022-11-02T17:36:54.007Z,17.37
2022-11-02T17:40:02.937Z,15.90
2022-11-02T17:43:05.877Z,16.10
2022-11-02T17:46:10.117Z,16.35
2022-11-02T17:49:13.621Z,14.95
2022-11-02T17:52:16.974Z,14.90
2022-11-02T17:55:23.291Z,13.55
2022-11-02T17:58:26.620Z,14.55
2022-11-02T18:01:29.792Z,13.62
2022-11-02T18:04:33.182Z,10.20
2022-11-02T18:07:36.354Z,10.00
2022-11-02T18:10:41.996Z,9.07
2022-11-02T18:13:44.890Z,8.35
2022-11-02T18:16:48.433Z,8.25
2022-11-02T18:19:51.370Z,9.25
2022-11-02T18:22:55.837Z,11.10
2022-11-02T18:25:59.477Z,11.73
2022-11-02T18:29:04.561Z,11.25
2022-11-02T18:32:07.407Z,9.75
2022-11-02T18:35:13.748Z,8.57
2022-11-02T18:38:16.625Z,8.25
2022-11-02T18:41:30.543Z,7.65
2022-11-02T18:44:33.457Z,8.60
2022-11-02T18:47:37.005Z,7.78
2022-11-02T18:50:40.598Z,7.30
2022-11-02T18:53:44.556Z,7.95
2022-11-02T18:56:47.650Z,8.27
2022-11-02T18:59:50.865Z,8.13
2022-11-02T19:02:54.153Z,8.75
2022-11-02T19:06:16.050Z,8.30
2022-11-02T19:09:21.499Z,10.05
2022-11-02T19:12:29.019Z,8.32
2022-11-02T19:15:37.319Z,8.00
2022-11-02T19:18:44.562Z,7.90
2022-11-02T19:21:48.691Z,8.23
2022-11-02T19:24:52.471Z,8.10
2022-11-02T19:27:55.738Z,7.47
2022-11-02T19:30:58.926Z,7.95
2022-11-02T19:34:02.177Z,7.90
2022-11-02T19:37:07.380Z,8.20
2022-11-02T19:40:10.934Z,8.20
2022-11-02T19:43:15.626Z,7.32
2022-11-02T19:46:20.898Z,6.05
2022-11-02T19:49:24.086Z,5.60
2022-11-02T19:52:27.095Z,5.55
2022-11-02T19:55:30.436Z,6.10
2022-11-02T19:58:33.791Z,6.05
2022-11-02T20:01:39.670Z,6.10
2022-11-02T20:04:44.970Z,7.47
2022-11-02T20:07:47.748Z,8.10
2022-11-02T20:10:50.962Z,8.52
2022-11-02T20:13:56.515Z,9.98
2022-11-02T20:17:25.301Z,8.82
2022-11-02T20:20:24.019Z,8.40
2022-11-02T20:23:27.154Z,6.57
2022-11-02T20:26:32.669Z,7.20
2022-11-02T20:29:36.281Z,6.80
2022-11-02T20:32:39.504Z,7.68
2022-11-02T20:38:54.340Z,8.32
2022-11-02T20:41:57.496Z,8.50
2022-11-02T20:45:00.363Z,8.35
2022-11-02T20:48:04.450Z,8.50
2022-11-02T20:51:09.715Z,7.75
2022-11-02T20:54:14.106Z,8.35
2022-11-02T20:57:16.918Z,7.37
2022-11-02T21:00:20.986Z,7.12
2022-11-02T21:03:24.651Z,7.90
2022-11-02T21:06:27.800Z,7.05
2022-11-02T21:09:30.813Z,8.15
2022-11-02T21:12:52.450Z,8.25
2022-11-02T21:15:55.283Z,8.18
2022-11-02T21:18:58.601Z,9.18
2022-11-02T21:22:01.553Z,7.85
2022-11-02T21:25:04.801Z,7.32
2022-11-02T21:28:07.922Z,8.13
2022-11-02T21:31:17.260Z,7.20
2022-11-02T21:34:22.437Z,7.62
2022-11-02T21:37:25.304Z,7.82
2022-11-02T21:40:29.036Z,6.85
2022-11-02T21:43:34.751Z,8.32
2022-11-02T21:46:37.492Z,7.87
2022-11-02T21:49:40.904Z,8.63
2022-11-02T21:52:45.212Z,7.35
2022-11-02T21:55:56.403Z,7.18
2022-11-02T21:58:59.082Z,6.32
2022-11-02T22:02:02.352Z,7.50
2022-11-02T22:05:05.771Z,6.97
2022-11-02T22:08:26.787Z,7.75
2022-11-02T22:11:30.081Z,6.57
2022-11-02T22:14:32.857Z,6.32
2022-11-02T22:17:49.328Z,6.85
2022-11-02T22:20:56.529Z,6.97
2022-11-02T22:23:59.864Z,6.53
2022-11-02T22:27:02.433Z,6.45
2022-11-02T22:30:08.184Z,6.35
2022-11-02T22:33:11.580Z,6.70
2022-11-02T22:36:16.575Z,6.53
2022-11-02T22:39:19.159Z,5.85
2022-11-02T22:42:22.096Z,5.68
2022-11-02T22:45:24.662Z,5.03
2022-11-02T22:48:28.241Z,6.43
2022-11-02T22:51:34.294Z,5.78
2022-11-02T22:54:37.321Z,5.18
2022-11-02T22:57:39.913Z,5.78
2022-11-02T23:00:44.274Z,6.25
2022-11-02T23:03:47.468Z,6.18
2022-11-02T23:06:50.292Z,5.90
2022-11-02T23:09:52.903Z,7.12
2022-11-02T23:12:55.751Z,6.80
2022-11-02T23:16:21.252Z,6.82
2022-11-02T23:19:29.810Z,6.62
2022-11-02T23:22:32.682Z,7.07
2022-11-02T23:25:35.649Z,7.20
2022-11-02T23:28:57.001Z,7.53
2022-11-02T23:32:18.650Z,8.25
2022-11-02T23:35:39.568Z,7.00
2022-11-02T23:39:04.131Z,7.53
2022-11-02T23:42:06.785Z,7.90
2022-11-02T23:45:10.817Z,7.35
2022-11-02T23:48:13.392Z,6.75
2022-11-02T23:51:34.845Z,7.97
2022-11-02T23:54:56.334Z,7.85
2022-11-02T23:57:59.246Z,7.90
